sensor_id;sensor_type;location;lat;lon;timestamp;temperature;humidity
32895;DHT22;19251;49.484;8.260;2023-07-24T00:04:18;22.60;15.10
32895;DHT22;19251;49.484;8.260;2023-07-24T00:09:20;22.70;15.40
32895;DHT22;19251;49.484;8.260;2023-07-24T00:14:22;22.20;15.10
32895;DHT22;19251;49.484;8.260;2023-07-24T00:19:25;22.70;15.70
32895;DHT22;19251;49.484;8.260;2023-07-24T00:24:27;22.40;14.90
32895;DHT22;19251;49.484;8.260;2023-07-24T00:29:29;22.40;14.90
32895;DHT22;19251;49.484;8.260;2023-07-24T00:34:33;22.40;15.70
32895;DHT22;19251;49.484;8.260;2023-07-24T00:39:36;22.40;15.10
32895;DHT22;19251;49.484;8.260;2023-07-24T00:44:39;22.40;16.10
32895;DHT22;19251;49.484;8.260;2023-07-24T00:49:41;22.40;16.10
32895;DHT22;19251;49.484;8.260;2023-07-24T00:54:43;22.30;16.20
32895;DHT22;19251;49.484;8.260;2023-07-24T00:59:47;22.20;16.40
32895;DHT22;19251;49.484;8.260;2023-07-24T01:04:50;22.00;16.30
32895;DHT22;19251;49.484;8.260;2023-07-24T01:09:52;21.80;16.20
32895;DHT22;19251;49.484;8.260;2023-07-24T01:15:09;22.30;16.70
32895;DHT22;19251;49.484;8.260;2023-07-24T01:20:15;22.20;16.20
32895;DHT22;19251;49.484;8.260;2023-07-24T01:25:28;22.40;17.10
32895;DHT22;19251;49.484;8.260;2023-07-24T01:30:33;21.90;16.20
32895;DHT22;19251;49.484;8.260;2023-07-24T01:35:36;21.90;17.10
32895;DHT22;19251;49.484;8.260;2023-07-24T01:40:41;22.10;16.60
32895;DHT22;19251;49.484;8.260;2023-07-24T01:45:43;21.90;18.10
32895;DHT22;19251;49.484;8.260;2023-07-24T01:50:46;22.20;16.90
32895;DHT22;19251;49.484;8.260;2023-07-24T01:55:48;22.20;17.50
32895;DHT22;19251;49.484;8.260;2023-07-24T02:00:50;22.20;17.30
32895;DHT22;19251;49.484;8.260;2023-07-24T02:05:52;22.30;17.30
32895;DHT22;19251;49.484;8.260;2023-07-24T02:10:54;22.40;17.10
32895;DHT22;19251;49.484;8.260;2023-07-24T02:15:56;22.20;16.80
32895;DHT22;19251;49.484;8.260;2023-07-24T02:20:58;22.40;16.90
32895;DHT22;19251;49.484;8.260;2023-07-24T02:26:01;22.60;17.20
32895;DHT22;19251;49.484;8.260;2023-07-24T02:31:03;22.30;17.00
32895;DHT22;19251;49.484;8.260;2023-07-24T02:36:05;22.10;16.90
32895;DHT22;19251;49.484;8.260;2023-07-24T02:41:08;22.00;16.40
32895;DHT22;19251;49.484;8.260;2023-07-24T02:46:10;22.00;17.30
32895;DHT22;19251;49.484;8.260;2023-07-24T02:51:12;21.90;17.40
32895;DHT22;19251;49.484;8.260;2023-07-24T02:56:15;21.80;17.70
32895;DHT22;19251;49.484;8.260;2023-07-24T03:01:22;21.40;17.70
32895;DHT22;19251;49.484;8.260;2023-07-24T03:06:25;21.60;18.10
32895;DHT22;19251;49.484;8.260;2023-07-24T03:11:28;21.30;17.80
32895;DHT22;19251;49.484;8.260;2023-07-24T03:16:30;21.50;18.70
32895;DHT22;19251;49.484;8.260;2023-07-24T03:21:33;21.50;18.70
32895;DHT22;19251;49.484;8.260;2023-07-24T03:26:35;21.60;18.70
32895;DHT22;19251;49.484;8.260;2023-07-24T03:31:37;21.60;18.80
32895;DHT22;19251;49.484;8.260;2023-07-24T03:36:39;21.50;18.90
32895;DHT22;19251;49.484;8.260;2023-07-24T03:41:44;21.90;18.60
32895;DHT22;19251;49.484;8.260;2023-07-24T03:46:46;21.60;19.30
32895;DHT22;19251;49.484;8.260;2023-07-24T03:51:48;21.50;19.80
32895;DHT22;19251;49.484;8.260;2023-07-24T03:56:50;21.50;19.10
32895;DHT22;19251;49.484;8.260;2023-07-24T04:01:52;21.60;19.20
32895;DHT22;19251;49.484;8.260;2023-07-24T04:06:55;21.70;19.20
32895;DHT22;19251;49.484;8.260;2023-07-24T04:12:10;21.80;19.40
32895;DHT22;19251;49.484;8.260;2023-07-24T04:17:12;21.90;19.30
32895;DHT22;19251;49.484;8.260;2023-07-24T04:22:14;21.90;19.20
32895;DHT22;19251;49.484;8.260;2023-07-24T04:27:17;21.80;19.10
32895;DHT22;19251;49.484;8.260;2023-07-24T04:32:19;22.10;18.90
32895;DHT22;19251;49.484;8.260;2023-07-24T04:37:21;22.00;19.50
32895;DHT22;19251;49.484;8.260;2023-07-24T04:42:23;22.00;19.00
32895;DHT22;19251;49.484;8.260;2023-07-24T04:47:25;22.00;19.80
32895;DHT22;19251;49.484;8.260;2023-07-24T04:52:27;22.10;19.90
32895;DHT22;19251;49.484;8.260;2023-07-24T04:57:32;22.10;20.00
32895;DHT22;19251;49.484;8.260;2023-07-24T05:02:34;22.10;20.10
32895;DHT22;19251;49.484;8.260;2023-07-24T05:07:39;22.10;20.20
32895;DHT22;19251;49.484;8.260;2023-07-24T05:12:41;22.30;20.50
32895;DHT22;19251;49.484;8.260;2023-07-24T05:17:46;22.30;20.40
32895;DHT22;19251;49.484;8.260;2023-07-24T05:22:49;22.30;20.50
32895;DHT22;19251;49.484;8.260;2023-07-24T05:27:51;22.40;20.60
32895;DHT22;19251;49.484;8.260;2023-07-24T05:32:53;22.50;20.70
32895;DHT22;19251;49.484;8.260;2023-07-24T05:37:55;22.60;20.70
32895;DHT22;19251;49.484;8.260;2023-07-24T05:42:58;22.60;20.20
32895;DHT22;19251;49.484;8.260;2023-07-24T05:48:00;22.80;21.00
32895;DHT22;19251;49.484;8.260;2023-07-24T05:53:02;22.90;21.10
32895;DHT22;19251;49.484;8.260;2023-07-24T05:58:04;23.00;20.90
32895;DHT22;19251;49.484;8.260;2023-07-24T06:03:06;23.00;20.80
32895;DHT22;19251;49.484;8.260;2023-07-24T06:08:10;23.30;20.90
32895;DHT22;19251;49.484;8.260;2023-07-24T06:13:13;22.80;20.40
32895;DHT22;19251;49.484;8.260;2023-07-24T06:18:16;23.20;20.50
32895;DHT22;19251;49.484;8.260;2023-07-24T06:23:18;23.40;20.60
32895;DHT22;19251;49.484;8.260;2023-07-24T06:28:20;23.50;20.30
32895;DHT22;19251;49.484;8.260;2023-07-24T06:33:22;23.60;20.10
32895;DHT22;19251;49.484;8.260;2023-07-24T06:38:24;23.80;19.30
32895;DHT22;19251;49.484;8.260;2023-07-24T06:43:26;23.90;19.80
32895;DHT22;19251;49.484;8.260;2023-07-24T06:48:29;24.00;19.70
32895;DHT22;19251;49.484;8.260;2023-07-24T06:53:31;24.20;19.30
32895;DHT22;19251;49.484;8.260;2023-07-24T06:58:34;24.40;19.10
32895;DHT22;19251;49.484;8.260;2023-07-24T07:03:36;24.80;17.20
32895;DHT22;19251;49.484;8.260;2023-07-24T07:08:38;24.80;17.70
32895;DHT22;19251;49.484;8.260;2023-07-24T07:13:40;25.00;17.90
32895;DHT22;19251;49.484;8.260;2023-07-24T07:18:43;25.20;18.20
32895;DHT22;19251;49.484;8.260;2023-07-24T07:23:45;25.60;18.10
32895;DHT22;19251;49.484;8.260;2023-07-24T07:28:48;26.10;17.90
32895;DHT22;19251;49.484;8.260;2023-07-24T07:33:51;26.10;17.40
32895;DHT22;19251;49.484;8.260;2023-07-24T07:38:54;26.20;17.00
32895;DHT22;19251;49.484;8.260;2023-07-24T07:43:56;26.60;16.50
32895;DHT22;19251;49.484;8.260;2023-07-24T07:48:58;26.70;16.10
32895;DHT22;19251;49.484;8.260;2023-07-24T07:54:00;26.90;15.80
32895;DHT22;19251;49.484;8.260;2023-07-24T07:59:02;26.90;15.60
32895;DHT22;19251;49.484;8.260;2023-07-24T08:04:04;26.90;15.40
32895;DHT22;19251;49.484;8.260;2023-07-24T08:09:06;27.00;15.40
32895;DHT22;19251;49.484;8.260;2023-07-24T08:14:08;26.60;15.10
32895;DHT22;19251;49.484;8.260;2023-07-24T08:19:11;27.10;15.50
32895;DHT22;19251;49.484;8.260;2023-07-24T08:24:13;27.40;15.60
32895;DHT22;19251;49.484;8.260;2023-07-24T08:29:15;27.20;15.40
32895;DHT22;19251;49.484;8.260;2023-07-24T08:34:17;27.00;14.70
32895;DHT22;19251;49.484;8.260;2023-07-24T08:39:19;27.70;15.20
32895;DHT22;19251;49.484;8.260;2023-07-24T08:44:21;28.10;14.40
32895;DHT22;19251;49.484;8.260;2023-07-24T08:49:30;28.30;14.40
32895;DHT22;19251;49.484;8.260;2023-07-24T08:54:32;28.50;12.80
32895;DHT22;19251;49.484;8.260;2023-07-24T08:59:38;28.30;12.30
32895;DHT22;19251;49.484;8.260;2023-07-24T09:04:40;28.40;12.20
32895;DHT22;19251;49.484;8.260;2023-07-24T09:09:42;28.50;12.10
32895;DHT22;19251;49.484;8.260;2023-07-24T09:14:44;28.40;11.60
32895;DHT22;19251;49.484;8.260;2023-07-24T09:19:56;28.60;12.00
32895;DHT22;19251;49.484;8.260;2023-07-24T09:24:59;28.60;11.20
32895;DHT22;19251;49.484;8.260;2023-07-24T09:30:02;28.50;10.90
32895;DHT22;19251;49.484;8.260;2023-07-24T09:35:17;28.30;11.10
32895;DHT22;19251;49.484;8.260;2023-07-24T09:40:22;28.60;10.50
32895;DHT22;19251;49.484;8.260;2023-07-24T09:45:24;28.60;10.30
32895;DHT22;19251;49.484;8.260;2023-07-24T09:50:27;28.70;10.50
32895;DHT22;19251;49.484;8.260;2023-07-24T09:55:47;28.40;10.30
32895;DHT22;19251;49.484;8.260;2023-07-24T10:00:52;28.80;10.50
32895;DHT22;19251;49.484;8.260;2023-07-24T10:05:56;28.80;9.90
32895;DHT22;19251;49.484;8.260;2023-07-24T10:11:01;28.90;9.10
32895;DHT22;19251;49.484;8.260;2023-07-24T10:16:04;28.60;8.80
32895;DHT22;19251;49.484;8.260;2023-07-24T10:21:10;28.70;9.30
32895;DHT22;19251;49.484;8.260;2023-07-24T10:26:15;28.70;9.30
32895;DHT22;19251;49.484;8.260;2023-07-24T10:31:24;29.00;9.10
32895;DHT22;19251;49.484;8.260;2023-07-24T10:36:35;29.00;8.40
32895;DHT22;19251;49.484;8.260;2023-07-24T10:41:44;29.10;7.10
32895;DHT22;19251;49.484;8.260;2023-07-24T10:46:52;29.20;6.30
32895;DHT22;19251;49.484;8.260;2023-07-24T10:52:00;29.30;6.80
32895;DHT22;19251;49.484;8.260;2023-07-24T10:57:02;29.10;6.50
32895;DHT22;19251;49.484;8.260;2023-07-24T11:02:04;29.10;6.60
32895;DHT22;19251;49.484;8.260;2023-07-24T11:07:06;29.20;6.50
32895;DHT22;19251;49.484;8.260;2023-07-24T11:12:14;29.70;7.00
32895;DHT22;19251;49.484;8.260;2023-07-24T11:17:17;29.50;7.90
32895;DHT22;19251;49.484;8.260;2023-07-24T11:22:21;29.50;8.60
32895;DHT22;19251;49.484;8.260;2023-07-24T11:27:25;29.30;8.60
32895;DHT22;19251;49.484;8.260;2023-07-24T11:32:27;29.60;8.90
32895;DHT22;19251;49.484;8.260;2023-07-24T11:37:30;29.60;8.90
32895;DHT22;19251;49.484;8.260;2023-07-24T11:42:33;29.40;9.30
32895;DHT22;19251;49.484;8.260;2023-07-24T11:47:45;29.40;10.30
32895;DHT22;19251;49.484;8.260;2023-07-24T11:52:50;29.50;10.80
32895;DHT22;19251;49.484;8.260;2023-07-24T12:03:02;29.80;11.00
32895;DHT22;19251;49.484;8.260;2023-07-24T12:08:08;30.00;11.00
32895;DHT22;19251;49.484;8.260;2023-07-24T12:13:10;30.20;10.60
32895;DHT22;19251;49.484;8.260;2023-07-24T12:18:13;30.30;10.80
32895;DHT22;19251;49.484;8.260;2023-07-24T12:23:15;30.20;10.70
32895;DHT22;19251;49.484;8.260;2023-07-24T12:28:19;30.70;10.40
32895;DHT22;19251;49.484;8.260;2023-07-24T12:38:31;31.40;9.40
32895;DHT22;19251;49.484;8.260;2023-07-24T12:43:33;31.60;9.60
32895;DHT22;19251;49.484;8.260;2023-07-24T12:48:36;31.90;9.50
32895;DHT22;19251;49.484;8.260;2023-07-24T12:53:38;32.30;9.00
32895;DHT22;19251;49.484;8.260;2023-07-24T12:58:52;32.50;8.10
32895;DHT22;19251;49.484;8.260;2023-07-24T13:03:55;32.30;7.60
32895;DHT22;19251;49.484;8.260;2023-07-24T13:08:57;32.00;8.00
32895;DHT22;19251;49.484;8.260;2023-07-24T13:13:59;31.90;8.30
32895;DHT22;19251;49.484;8.260;2023-07-24T13:19:01;31.80;7.50
32895;DHT22;19251;49.484;8.260;2023-07-24T13:24:04;31.70;7.00
32895;DHT22;19251;49.484;8.260;2023-07-24T13:29:06;31.50;6.10
32895;DHT22;19251;49.484;8.260;2023-07-24T13:34:08;31.40;5.40
32895;DHT22;19251;49.484;8.260;2023-07-24T13:39:11;31.20;5.90
32895;DHT22;19251;49.484;8.260;2023-07-24T13:44:13;31.00;6.60
32895;DHT22;19251;49.484;8.260;2023-07-24T13:49:15;30.80;8.10
32895;DHT22;19251;49.484;8.260;2023-07-24T13:54:17;30.40;10.80
32895;DHT22;19251;49.484;8.260;2023-07-24T13:59:20;29.80;12.20
32895;DHT22;19251;49.484;8.260;2023-07-24T14:04:22;29.10;13.10
32895;DHT22;19251;49.484;8.260;2023-07-24T14:09:25;28.60;14.70
32895;DHT22;19251;49.484;8.260;2023-07-24T14:14:27;27.90;15.50
32895;DHT22;19251;49.484;8.260;2023-07-24T14:19:29;27.80;15.60
32895;DHT22;19251;49.484;8.260;2023-07-24T14:24:31;27.50;18.10
32895;DHT22;19251;49.484;8.260;2023-07-24T14:29:33;27.50;19.00
32895;DHT22;19251;49.484;8.260;2023-07-24T14:34:36;27.70;21.50
32895;DHT22;19251;49.484;8.260;2023-07-24T14:39:38;28.60;22.80
32895;DHT22;19251;49.484;8.260;2023-07-24T14:44:41;29.60;21.20
32895;DHT22;19251;49.484;8.260;2023-07-24T14:49:43;30.60;20.70
32895;DHT22;19251;49.484;8.260;2023-07-24T14:54:45;31.70;17.30
32895;DHT22;19251;49.484;8.260;2023-07-24T14:59:49;32.40;15.10
32895;DHT22;19251;49.484;8.260;2023-07-24T15:04:52;32.50;12.70
32895;DHT22;19251;49.484;8.260;2023-07-24T15:09:54;32.10;12.40
32895;DHT22;19251;49.484;8.260;2023-07-24T15:14:57;31.80;13.40
32895;DHT22;19251;49.484;8.260;2023-07-24T15:19:59;31.70;12.70
32895;DHT22;19251;49.484;8.260;2023-07-24T15:25:01;31.50;12.60
32895;DHT22;19251;49.484;8.260;2023-07-24T15:30:05;31.20;12.40
32895;DHT22;19251;49.484;8.260;2023-07-24T15:35:07;30.80;12.50
32895;DHT22;19251;49.484;8.260;2023-07-24T15:40:10;30.30;12.80
32895;DHT22;19251;49.484;8.260;2023-07-24T15:45:14;29.70;14.00
32895;DHT22;19251;49.484;8.260;2023-07-24T15:50:17;29.20;15.10
32895;DHT22;19251;49.484;8.260;2023-07-24T15:55:19;29.00;14.90
32895;DHT22;19251;49.484;8.260;2023-07-24T16:00:22;29.30;15.10
32895;DHT22;19251;49.484;8.260;2023-07-24T16:05:24;30.60;12.80
32895;DHT22;19251;49.484;8.260;2023-07-24T16:10:26;31.60;10.80
32895;DHT22;19251;49.484;8.260;2023-07-24T16:15:28;32.50;9.40
32895;DHT22;19251;49.484;8.260;2023-07-24T16:20:34;33.50;7.20
32895;DHT22;19251;49.484;8.260;2023-07-24T16:25:37;34.50;6.20
32895;DHT22;19251;49.484;8.260;2023-07-24T16:30:39;35.50;3.80
32895;DHT22;19251;49.484;8.260;2023-07-24T16:35:43;36.30;1.30
32895;DHT22;19251;49.484;8.260;2023-07-24T16:40:45;36.70;1.00
32895;DHT22;19251;49.484;8.260;2023-07-24T16:45:48;37.00;1.00
32895;DHT22;19251;49.484;8.260;2023-07-24T16:50:56;37.20;1.00
32895;DHT22;19251;49.484;8.260;2023-07-24T16:55:58;37.40;1.00
32895;DHT22;19251;49.484;8.260;2023-07-24T17:01:01;37.10;1.00
32895;DHT22;19251;49.484;8.260;2023-07-24T17:06:03;37.00;1.00
32895;DHT22;19251;49.484;8.260;2023-07-24T17:11:06;36.80;1.00
32895;DHT22;19251;49.484;8.260;2023-07-24T17:16:08;36.30;1.00
32895;DHT22;19251;49.484;8.260;2023-07-24T17:21:11;35.30;1.00
32895;DHT22;19251;49.484;8.260;2023-07-24T17:26:13;34.80;1.00
32895;DHT22;19251;49.484;8.260;2023-07-24T17:31:16;33.00;1.00
32895;DHT22;19251;49.484;8.260;2023-07-24T17:36:18;31.90;1.00
32895;DHT22;19251;49.484;8.260;2023-07-24T17:41:21;31.10;1.20
32895;DHT22;19251;49.484;8.260;2023-07-24T17:46:23;30.40;2.50
32895;DHT22;19251;49.484;8.260;2023-07-24T17:51:26;30.00;2.20
32895;DHT22;19251;49.484;8.260;2023-07-24T17:56:28;29.60;3.80
32895;DHT22;19251;49.484;8.260;2023-07-24T18:01:30;28.90;4.00
32895;DHT22;19251;49.484;8.260;2023-07-24T18:06:34;28.60;5.10
32895;DHT22;19251;49.484;8.260;2023-07-24T18:11:36;28.50;6.10
32895;DHT22;19251;49.484;8.260;2023-07-24T18:16:38;28.00;5.10
32895;DHT22;19251;49.484;8.260;2023-07-24T18:21:43;28.00;5.80
32895;DHT22;19251;49.484;8.260;2023-07-24T18:26:46;27.50;6.20
32895;DHT22;19251;49.484;8.260;2023-07-24T18:31:48;27.40;7.00
32895;DHT22;19251;49.484;8.260;2023-07-24T18:36:50;27.10;5.80
32895;DHT22;19251;49.484;8.260;2023-07-24T18:41:52;26.80;5.00
32895;DHT22;19251;49.484;8.260;2023-07-24T18:46:55;26.70;5.50
32895;DHT22;19251;49.484;8.260;2023-07-24T18:51:57;26.50;5.40
32895;DHT22;19251;49.484;8.260;2023-07-24T18:57:00;26.10;5.10
32895;DHT22;19251;49.484;8.260;2023-07-24T19:02:02;26.10;5.60
32895;DHT22;19251;49.484;8.260;2023-07-24T19:07:05;25.90;5.90
32895;DHT22;19251;49.484;8.260;2023-07-24T19:12:07;25.80;6.20
32895;DHT22;19251;49.484;8.260;2023-07-24T19:17:10;25.80;6.30
32895;DHT22;19251;49.484;8.260;2023-07-24T19:22:12;25.70;6.40
32895;DHT22;19251;49.484;8.260;2023-07-24T19:27:14;25.60;6.50
32895;DHT22;19251;49.484;8.260;2023-07-24T19:32:16;25.50;6.70
32895;DHT22;19251;49.484;8.260;2023-07-24T19:37:19;25.30;6.90
32895;DHT22;19251;49.484;8.260;2023-07-24T19:42:21;25.20;6.40
32895;DHT22;19251;49.484;8.260;2023-07-24T19:47:23;24.90;6.60
32895;DHT22;19251;49.484;8.260;2023-07-24T19:52:25;24.90;7.50
32895;DHT22;19251;49.484;8.260;2023-07-24T19:57:29;25.00;7.80
32895;DHT22;19251;49.484;8.260;2023-07-24T20:02:31;24.40;8.10
32895;DHT22;19251;49.484;8.260;2023-07-24T20:07:34;24.80;9.80
32895;DHT22;19251;49.484;8.260;2023-07-24T20:12:36;24.10;10.50
32895;DHT22;19251;49.484;8.260;2023-07-24T20:17:38;24.20;11.80
32895;DHT22;19251;49.484;8.260;2023-07-24T20:22:40;23.70;11.00
32895;DHT22;19251;49.484;8.260;2023-07-24T20:27:43;23.80;11.70
32895;DHT22;19251;49.484;8.260;2023-07-24T20:32:45;23.30;11.50
32895;DHT22;19251;49.484;8.260;2023-07-24T20:37:48;22.70;11.60
32895;DHT22;19251;49.484;8.260;2023-07-24T20:42:51;22.90;13.00
32895;DHT22;19251;49.484;8.260;2023-07-24T20:47:53;22.70;11.80
32895;DHT22;19251;49.484;8.260;2023-07-24T20:52:56;22.70;13.30
32895;DHT22;19251;49.484;8.260;2023-07-24T20:57:58;22.40;13.70
32895;DHT22;19251;49.484;8.260;2023-07-24T21:03:00;22.30;14.00
32895;DHT22;19251;49.484;8.260;2023-07-24T21:08:03;22.10;14.70
32895;DHT22;19251;49.484;8.260;2023-07-24T21:13:05;21.90;14.30
32895;DHT22;19251;49.484;8.260;2023-07-24T21:18:07;21.80;15.10
32895;DHT22;19251;49.484;8.260;2023-07-24T21:23:10;21.70;15.40
32895;DHT22;19251;49.484;8.260;2023-07-24T21:28:12;21.60;15.90
32895;DHT22;19251;49.484;8.260;2023-07-24T21:33:16;21.40;15.70
32895;DHT22;19251;49.484;8.260;2023-07-24T21:38:18;21.40;15.70
32895;DHT22;19251;49.484;8.260;2023-07-24T21:43:21;21.40;16.00
32895;DHT22;19251;49.484;8.260;2023-07-24T21:48:23;21.40;17.10
32895;DHT22;19251;49.484;8.260;2023-07-24T21:53:26;21.50;17.90
32895;DHT22;19251;49.484;8.260;2023-07-24T21:58:28;21.60;18.10
32895;DHT22;19251;49.484;8.260;2023-07-24T22:03:31;21.50;17.40
32895;DHT22;19251;49.484;8.260;2023-07-24T22:08:33;21.70;18.70
32895;DHT22;19251;49.484;8.260;2023-07-24T22:13:35;21.50;18.50
32895;DHT22;19251;49.484;8.260;2023-07-24T22:18:38;21.40;17.70
32895;DHT22;19251;49.484;8.260;2023-07-24T22:23:40;21.20;17.60
32895;DHT22;19251;49.484;8.260;2023-07-24T22:28:42;21.40;18.80
32895;DHT22;19251;49.484;8.260;2023-07-24T22:33:44;21.30;18.60
32895;DHT22;19251;49.484;8.260;2023-07-24T22:38:47;21.40;18.80
32895;DHT22;19251;49.484;8.260;2023-07-24T22:43:49;21.20;19.60
32895;DHT22;19251;49.484;8.260;2023-07-24T22:48:51;21.20;19.30
32895;DHT22;19251;49.484;8.260;2023-07-24T22:53:54;21.20;20.20
32895;DHT22;19251;49.484;8.260;2023-07-24T22:59:21;21.10;19.60
32895;DHT22;19251;49.484;8.260;2023-07-24T23:04:25;21.10;20.30
32895;DHT22;19251;49.484;8.260;2023-07-24T23:09:27;21.20;20.50
32895;DHT22;19251;49.484;8.260;2023-07-24T23:14:29;21.20;19.90
32895;DHT22;19251;49.484;8.260;2023-07-24T23:19:32;21.30;20.90
32895;DHT22;19251;49.484;8.260;2023-07-24T23:24:34;21.40;21.30
32895;DHT22;19251;49.484;8.260;2023-07-24T23:29:36;21.20;21.10
32895;DHT22;19251;49.484;8.260;2023-07-24T23:34:38;21.20;20.60
32895;DHT22;19251;49.484;8.260;2023-07-24T23:39:40;21.10;20.70
32895;DHT22;19251;49.484;8.260;2023-07-24T23:44:43;21.20;21.50
32895;DHT22;19251;49.484;8.260;2023-07-24T23:49:45;21.20;21.60
32895;DHT22;19251;49.484;8.260;2023-07-24T23:54:47;21.20;21.50
32895;DHT22;19251;49.484;8.260;2023-07-24T23:59:49;21.20;21.80
